sensor_id;sensor_type;location;lat;lon;timestamp;pressure;altitude;pressure_sealevel;temperature;humidity
30744;BME280;17486;46.738;7.622;2022-10-31T00:01:57;95794.72;;;13.21;60.94
30744;BME280;17486;46.738;7.622;2022-10-31T00:04:22;95800.06;;;13.18;60.98
30744;BME280;17486;46.738;7.622;2022-10-31T00:06:48;95792.78;;;13.24;60.95
30744;BME280;17486;46.738;7.622;2022-10-31T00:09:13;95784.09;;;13.24;61.00
30744;BME280;17486;46.738;7.622;2022-10-31T00:11:39;95784.41;;;13.18;61.27
30744;BME280;17486;46.738;7.622;2022-10-31T00:14:04;95746.25;;;12.98;60.90
30744;BME280;17486;46.738;7.622;2022-10-31T00:16:30;95749.69;;;12.98;61.22
30744;BME280;17486;46.738;7.622;2022-10-31T00:19:01;95788.72;;;13.19;61.20
30744;BME280;17486;46.738;7.622;2022-10-31T00:21:28;95750.66;;;12.97;61.14
30744;BME280;17486;46.738;7.622;2022-10-31T00:23:53;95752.47;;;12.95;61.21
30744;BME280;17486;46.738;7.622;2022-10-31T00:26:19;95794.94;;;13.16;61.04
30744;BME280;17486;46.738;7.622;2022-10-31T00:28:44;95760.84;;;13.02;61.30
30744;BME280;17486;46.738;7.622;2022-10-31T00:31:12;95786.34;;;13.14;61.61
30744;BME280;17486;46.738;7.622;2022-10-31T00:33:39;95738.28;;;12.83;61.37
30744;BME280;17486;46.738;7.622;2022-10-31T00:36:06;95783.88;;;13.11;61.17
30744;BME280;17486;46.738;7.622;2022-10-31T00:38:32;95776.03;;;13.11;61.59
30744;BME280;17486;46.738;7.622;2022-10-31T00:40:58;95788.19;;;13.12;61.43
30744;BME280;17486;46.738;7.622;2022-10-31T00:43:23;95777.81;;;13.10;61.60
30744;BME280;17486;46.738;7.622;2022-10-31T00:45:49;95782.97;;;13.12;61.58
30744;BME280;17486;46.738;7.622;2022-10-31T00:48:14;95784.88;;;13.08;61.62
30744;BME280;17486;46.738;7.622;2022-10-31T00:50:39;95775.38;;;13.07;61.52
30744;BME280;17486;46.738;7.622;2022-10-31T00:53:05;95780.50;;;13.09;61.88
30744;BME280;17486;46.738;7.622;2022-10-31T00:55:31;95724.41;;;12.83;61.39
30744;BME280;17486;46.738;7.622;2022-10-31T00:57:56;95784.13;;;13.06;61.56
30744;BME280;17486;46.738;7.622;2022-10-31T01:00:22;95768.53;;;13.05;61.61
30744;BME280;17486;46.738;7.622;2022-10-31T01:02:47;95769.53;;;13.02;61.78
30744;BME280;17486;46.738;7.622;2022-10-31T01:05:13;95774.91;;;12.99;61.60
30744;BME280;17486;46.738;7.622;2022-10-31T01:07:39;95731.75;;;12.74;61.32
30744;BME280;17486;46.738;7.622;2022-10-31T01:10:06;95730.94;;;12.74;61.50
30744;BME280;17486;46.738;7.622;2022-10-31T01:12:39;95773.66;;;12.89;61.41
30744;BME280;17486;46.738;7.622;2022-10-31T01:15:06;95724.63;;;12.60;61.32
30744;BME280;17486;46.738;7.622;2022-10-31T01:17:32;95765.22;;;12.84;61.57
30744;BME280;17486;46.738;7.622;2022-10-31T01:19:57;95734.09;;;12.63;61.41
30744;BME280;17486;46.738;7.622;2022-10-31T01:22:23;95733.00;;;12.67;61.62
30744;BME280;17486;46.738;7.622;2022-10-31T01:24:48;95705.38;;;12.63;61.18
30744;BME280;17486;46.738;7.622;2022-10-31T01:27:14;95755.84;;;12.80;61.43
30744;BME280;17486;46.738;7.622;2022-10-31T01:29:39;95718.34;;;12.65;61.58
30744;BME280;17486;46.738;7.622;2022-10-31T01:32:05;95765.09;;;12.87;61.77
30744;BME280;17486;46.738;7.622;2022-10-31T01:34:30;95758.16;;;12.86;61.19
30744;BME280;17486;46.738;7.622;2022-10-31T01:36:55;95710.59;;;12.63;61.33
30744;BME280;17486;46.738;7.622;2022-10-31T01:39:21;95736.66;;;12.81;61.64
30744;BME280;17486;46.738;7.622;2022-10-31T01:41:50;95722.84;;;12.61;61.67
30744;BME280;17486;46.738;7.622;2022-10-31T01:49:37;95760.88;;;12.84;61.63
30744;BME280;17486;46.738;7.622;2022-10-31T01:52:12;95751.25;;;12.85;61.36
30744;BME280;17486;46.738;7.622;2022-10-31T01:54:42;95748.97;;;12.79;61.36
30744;BME280;17486;46.738;7.622;2022-10-31T01:57:12;95752.41;;;12.79;61.24
30744;BME280;17486;46.738;7.622;2022-10-31T01:59:45;95741.16;;;12.79;61.24
30744;BME280;17486;46.738;7.622;2022-10-31T02:02:13;95753.72;;;12.70;61.39
30744;BME280;17486;46.738;7.622;2022-10-31T02:04:40;95745.88;;;12.70;61.30
30744;BME280;17486;46.738;7.622;2022-10-31T02:07:10;95734.75;;;12.67;61.33
30744;BME280;17486;46.738;7.622;2022-10-31T02:09:37;95696.16;;;12.38;61.55
30744;BME280;17486;46.738;7.622;2022-10-31T02:12:05;95699.38;;;12.43;61.43
30744;BME280;17486;46.738;7.622;2022-10-31T02:14:31;95696.00;;;12.41;61.70
30744;BME280;17486;46.738;7.622;2022-10-31T02:16:57;95711.06;;;12.54;61.35
30744;BME280;17486;46.738;7.622;2022-10-31T02:30:07;95713.78;;;12.51;62.22
30744;BME280;17486;46.738;7.622;2022-10-31T02:41:42;95709.03;;;12.41;61.88
30744;BME280;17486;46.738;7.622;2022-10-31T02:44:20;95667.91;;;12.11;62.07
30744;BME280;17486;46.738;7.622;2022-10-31T02:46:57;95719.63;;;12.38;62.02
30744;BME280;17486;46.738;7.622;2022-10-31T02:49:35;95710.13;;;12.37;62.00
30744;BME280;17486;46.738;7.622;2022-10-31T02:52:20;95710.28;;;12.34;62.13
30744;BME280;17486;46.738;7.622;2022-10-31T02:54:47;95705.81;;;12.36;61.85
30744;BME280;17486;46.738;7.622;2022-10-31T02:57:13;95694.69;;;12.33;62.05
30744;BME280;17486;46.738;7.622;2022-10-31T02:59:45;95706.88;;;12.32;61.78
30744;BME280;17486;46.738;7.622;2022-10-31T03:08:02;95715.00;;;12.26;61.79
30744;BME280;17486;46.738;7.622;2022-10-31T03:10:59;95701.97;;;12.26;61.74
30744;BME280;17486;46.738;7.622;2022-10-31T03:13:47;95700.31;;;12.25;61.74
30744;BME280;17486;46.738;7.622;2022-10-31T03:16:35;95702.41;;;12.17;61.98
30744;BME280;17486;46.738;7.622;2022-10-31T03:19:10;95711.19;;;12.16;61.91
30744;BME280;17486;46.738;7.622;2022-10-31T03:21:44;95665.44;;;11.89;62.49
30744;BME280;17486;46.738;7.622;2022-10-31T03:24:12;95693.31;;;12.08;62.37
30744;BME280;17486;46.738;7.622;2022-10-31T03:26:42;95694.13;;;12.08;62.26
30744;BME280;17486;46.738;7.622;2022-10-31T03:29:13;95712.38;;;12.08;62.27
30744;BME280;17486;46.738;7.622;2022-10-31T03:31:48;95692.44;;;12.07;62.16
30744;BME280;17486;46.738;7.622;2022-10-31T03:34:15;95693.22;;;12.09;62.33
30744;BME280;17486;46.738;7.622;2022-10-31T03:36:43;95700.97;;;12.11;62.06
30744;BME280;17486;46.738;7.622;2022-10-31T03:39:13;95694.91;;;12.10;62.17
30744;BME280;17486;46.738;7.622;2022-10-31T03:41:44;95693.97;;;12.11;62.02
30744;BME280;17486;46.738;7.622;2022-10-31T03:44:14;95642.16;;;11.86;61.88
30744;BME280;17486;46.738;7.622;2022-10-31T03:46:42;95689.47;;;12.15;62.55
30744;BME280;17486;46.738;7.622;2022-10-31T03:49:08;95683.53;;;12.11;61.83
30744;BME280;17486;46.738;7.622;2022-10-31T03:51:54;95693.84;;;12.15;62.28
30744;BME280;17486;46.738;7.622;2022-10-31T03:54:26;95691.31;;;12.13;61.99
30744;BME280;17486;46.738;7.622;2022-10-31T03:57:02;95687.09;;;12.10;61.86
30744;BME280;17486;46.738;7.622;2022-10-31T03:59:36;95679.41;;;12.07;62.00
30744;BME280;17486;46.738;7.622;2022-10-31T04:02:07;95691.31;;;12.13;62.58
30744;BME280;17486;46.738;7.622;2022-10-31T04:04:36;95683.63;;;12.10;61.79
30744;BME280;17486;46.738;7.622;2022-10-31T04:07:03;95696.75;;;12.08;62.10
30744;BME280;17486;46.738;7.622;2022-10-31T04:09:33;95645.13;;;11.78;62.13
30744;BME280;17486;46.738;7.622;2022-10-31T04:12:00;95679.00;;;11.98;62.73
30744;BME280;17486;46.738;7.622;2022-10-31T04:14:29;95667.38;;;11.86;62.75
30744;BME280;17486;46.738;7.622;2022-10-31T04:16:56;95676.66;;;11.91;62.64
30744;BME280;17486;46.738;7.622;2022-10-31T04:19:22;95636.84;;;11.70;62.79
30744;BME280;17486;46.738;7.622;2022-10-31T04:21:47;95679.19;;;11.93;62.68
30744;BME280;17486;46.738;7.622;2022-10-31T04:24:12;95642.81;;;11.72;62.34
30744;BME280;17486;46.738;7.622;2022-10-31T04:26:38;95677.66;;;11.89;62.88
30744;BME280;17486;46.738;7.622;2022-10-31T04:29:03;95678.47;;;11.89;62.75
30744;BME280;17486;46.738;7.622;2022-10-31T04:31:29;95665.44;;;11.89;62.58
30744;BME280;17486;46.738;7.622;2022-10-31T04:33:54;95626.78;;;11.63;62.76
30744;BME280;17486;46.738;7.622;2022-10-31T04:36:20;95631.16;;;11.62;62.57
30744;BME280;17486;46.738;7.622;2022-10-31T04:38:45;95667.31;;;11.87;62.90
30744;BME280;17486;46.738;7.622;2022-10-31T04:41:10;95673.50;;;11.85;62.63
30744;BME280;17486;46.738;7.622;2022-10-31T04:43:36;95630.22;;;11.63;62.50
30744;BME280;17486;46.738;7.622;2022-10-31T04:46:01;95667.22;;;11.89;62.72
30744;BME280;17486;46.738;7.622;2022-10-31T04:48:27;95620.59;;;11.65;62.98
30744;BME280;17486;46.738;7.622;2022-10-31T04:50:52;95624.72;;;11.69;62.71
30744;BME280;17486;46.738;7.622;2022-10-31T04:53:18;95659.19;;;11.93;62.41
30744;BME280;17486;46.738;7.622;2022-10-31T04:55:43;95661.03;;;11.91;62.62
30744;BME280;17486;46.738;7.622;2022-10-31T04:58:08;95658.50;;;11.90;62.86
30744;BME280;17486;46.738;7.622;2022-10-31T05:00:34;95613.75;;;11.63;62.54
30744;BME280;17486;46.738;7.622;2022-10-31T05:02:59;95661.84;;;11.92;62.81
30744;BME280;17486;46.738;7.622;2022-10-31T05:05:30;95611.84;;;11.66;62.53
30744;BME280;17486;46.738;7.622;2022-10-31T05:07:56;95663.47;;;11.94;62.76
30744;BME280;17486;46.738;7.622;2022-10-31T05:10:27;95625.28;;;11.76;62.70
30744;BME280;17486;46.738;7.622;2022-10-31T05:12:55;95654.81;;;11.94;62.56
30744;BME280;17486;46.738;7.622;2022-10-31T05:15:22;95618.75;;;11.67;62.64
30744;BME280;17486;46.738;7.622;2022-10-31T05:17:49;95612.75;;;11.65;62.27
30744;BME280;17486;46.738;7.622;2022-10-31T05:20:16;95618.88;;;11.64;62.91
30744;BME280;17486;46.738;7.622;2022-10-31T05:22:48;95636.56;;;11.76;63.01
30744;BME280;17486;46.738;7.622;2022-10-31T05:25:14;95612.94;;;11.62;62.58
30744;BME280;17486;46.738;7.622;2022-10-31T05:27:40;95626.50;;;11.69;62.98
30744;BME280;17486;46.738;7.622;2022-10-31T05:30:06;95664.53;;;11.90;62.74
30744;BME280;17486;46.738;7.622;2022-10-31T05:32:46;95622.34;;;11.65;62.60
30744;BME280;17486;46.738;7.622;2022-10-31T05:35:17;95654.19;;;11.89;62.68
30744;BME280;17486;46.738;7.622;2022-10-31T05:37:43;95648.97;;;11.89;62.47
30744;BME280;17486;46.738;7.622;2022-10-31T05:40:11;95609.38;;;11.63;62.72
30744;BME280;17486;46.738;7.622;2022-10-31T05:42:40;95656.97;;;11.86;62.54
30744;BME280;17486;46.738;7.622;2022-10-31T05:45:10;95649.78;;;11.72;62.73
30744;BME280;17486;46.738;7.622;2022-10-31T05:47:36;95606.28;;;11.37;63.20
30744;BME280;17486;46.738;7.622;2022-10-31T05:50:01;95654.03;;;11.55;63.34
30744;BME280;17486;46.738;7.622;2022-10-31T05:52:27;95632.44;;;11.53;63.18
30744;BME280;17486;46.738;7.622;2022-10-31T05:54:52;95601.25;;;11.33;63.70
30744;BME280;17486;46.738;7.622;2022-10-31T05:57:17;95636.50;;;11.59;63.83
30744;BME280;17486;46.738;7.622;2022-10-31T05:59:43;95630.59;;;11.55;63.62
30744;BME280;17486;46.738;7.622;2022-10-31T06:02:08;95638.97;;;11.62;63.91
30744;BME280;17486;46.738;7.622;2022-10-31T06:04:34;95605.22;;;11.41;63.08
30744;BME280;17486;46.738;7.622;2022-10-31T06:06:59;95639.81;;;11.63;63.62
30744;BME280;17486;46.738;7.622;2022-10-31T06:09:24;95612.78;;;11.46;63.35
30744;BME280;17486;46.738;7.622;2022-10-31T06:11:50;95642.25;;;11.66;63.36
30744;BME280;17486;46.738;7.622;2022-10-31T06:14:15;95658.75;;;11.66;63.60
30744;BME280;17486;46.738;7.622;2022-10-31T06:16:41;95604.34;;;11.41;63.59
30744;BME280;17486;46.738;7.622;2022-10-31T06:19:06;95600.91;;;11.40;63.68
30744;BME280;17486;46.738;7.622;2022-10-31T06:21:31;95611.16;;;11.43;63.90
30744;BME280;17486;46.738;7.622;2022-10-31T06:23:57;95611.03;;;11.47;63.51
30744;BME280;17486;46.738;7.622;2022-10-31T06:26:22;95612.03;;;11.44;63.71
30744;BME280;17486;46.738;7.622;2022-10-31T06:28:48;95607.94;;;11.38;63.74
30744;BME280;17486;46.738;7.622;2022-10-31T06:31:13;95615.63;;;11.41;63.71
30744;BME280;17486;46.738;7.622;2022-10-31T06:33:41;95632.34;;;11.55;64.00
30744;BME280;17486;46.738;7.622;2022-10-31T06:36:06;95639.53;;;11.50;63.85
30744;BME280;17486;46.738;7.622;2022-10-31T06:38:32;95594.13;;;11.19;63.62
30744;BME280;17486;46.738;7.622;2022-10-31T06:40:57;95600.88;;;11.23;63.87
30744;BME280;17486;46.738;7.622;2022-10-31T06:43:22;95640.41;;;11.50;64.41
30744;BME280;17486;46.738;7.622;2022-10-31T06:45:48;95614.22;;;11.34;64.23
30744;BME280;17486;46.738;7.622;2022-10-31T06:48:13;95608.94;;;11.36;63.79
30744;BME280;17486;46.738;7.622;2022-10-31T06:50:39;95647.53;;;11.64;64.05
30744;BME280;17486;46.738;7.622;2022-10-31T06:53:04;95656.00;;;11.69;64.00
30744;BME280;17486;46.738;7.622;2022-10-31T06:55:30;95642.81;;;11.72;64.30
30744;BME280;17486;46.738;7.622;2022-10-31T06:58:00;95615.75;;;11.57;64.11
30744;BME280;17486;46.738;7.622;2022-10-31T07:00:28;95651.03;;;11.82;64.14
30744;BME280;17486;46.738;7.622;2022-10-31T07:03:00;95623.09;;;11.67;63.64
30744;BME280;17486;46.738;7.622;2022-10-31T07:05:27;95655.97;;;11.88;63.89
30744;BME280;17486;46.738;7.622;2022-10-31T07:07:58;95653.38;;;11.88;63.68
30744;BME280;17486;46.738;7.622;2022-10-31T07:10:25;95657.28;;;11.97;64.23
30744;BME280;17486;46.738;7.622;2022-10-31T07:12:59;95625.19;;;11.77;63.74
30744;BME280;17486;46.738;7.622;2022-10-31T07:15:26;95663.06;;;12.04;64.07
30744;BME280;17486;46.738;7.622;2022-10-31T07:17:52;95671.44;;;12.10;63.82
30744;BME280;17486;46.738;7.622;2022-10-31T07:20:17;95681.25;;;12.05;64.20
30744;BME280;17486;46.738;7.622;2022-10-31T07:22:43;95648.66;;;11.97;64.12
30744;BME280;17486;46.738;7.622;2022-10-31T07:25:10;95677.34;;;12.14;63.85
30744;BME280;17486;46.738;7.622;2022-10-31T07:27:40;95626.34;;;11.89;63.72
30744;BME280;17486;46.738;7.622;2022-10-31T07:30:07;95683.03;;;12.22;63.77
30744;BME280;17486;46.738;7.622;2022-10-31T07:32:47;95659.94;;;12.15;63.96
30744;BME280;17486;46.738;7.622;2022-10-31T07:35:16;95645.38;;;12.10;63.91
30744;BME280;17486;46.738;7.622;2022-10-31T07:37:42;95686.63;;;12.37;63.84
30744;BME280;17486;46.738;7.622;2022-10-31T07:40:08;95680.50;;;12.38;63.89
30744;BME280;17486;46.738;7.622;2022-10-31T07:42:39;95692.41;;;12.44;63.84
30744;BME280;17486;46.738;7.622;2022-10-31T07:45:06;95650.81;;;12.23;63.80
30744;BME280;17486;46.738;7.622;2022-10-31T07:47:46;95708.59;;;12.51;64.05
30744;BME280;17486;46.738;7.622;2022-10-31T07:50:15;95701.28;;;12.57;64.10
30744;BME280;17486;46.738;7.622;2022-10-31T07:52:41;95703.69;;;12.62;63.43
30744;BME280;17486;46.738;7.622;2022-10-31T07:55:07;95690.56;;;12.64;63.51
30744;BME280;17486;46.738;7.622;2022-10-31T07:57:33;95690.72;;;12.60;63.85
30744;BME280;17486;46.738;7.622;2022-10-31T07:59:59;95701.00;;;12.64;63.32
30744;BME280;17486;46.738;7.622;2022-10-31T08:02:25;95699.16;;;12.66;63.83
30744;BME280;17486;46.738;7.622;2022-10-31T08:04:50;95691.47;;;12.63;63.72
30744;BME280;17486;46.738;7.622;2022-10-31T08:07:16;95659.94;;;12.50;63.60
30744;BME280;17486;46.738;7.622;2022-10-31T08:09:42;95698.69;;;12.75;63.62
30744;BME280;17486;46.738;7.622;2022-10-31T08:12:07;95650.34;;;12.50;63.35
30744;BME280;17486;46.738;7.622;2022-10-31T08:14:32;95700.31;;;12.77;63.20
30744;BME280;17486;46.738;7.622;2022-10-31T08:16:58;95696.53;;;12.83;63.67
30744;BME280;17486;46.738;7.622;2022-10-31T08:19:23;95700.53;;;12.90;63.41
30744;BME280;17486;46.738;7.622;2022-10-31T08:21:52;95708.97;;;12.96;63.26
30744;BME280;17486;46.738;7.622;2022-10-31T08:24:22;95692.88;;;13.03;63.18
30744;BME280;17486;46.738;7.622;2022-10-31T08:26:48;95691.03;;;13.05;62.76
30744;BME280;17486;46.738;7.622;2022-10-31T08:29:13;95643.75;;;12.94;62.77
30744;BME280;17486;46.738;7.622;2022-10-31T08:31:40;95690.06;;;13.24;62.31
30744;BME280;17486;46.738;7.622;2022-10-31T08:34:05;95659.22;;;13.15;62.51
30744;BME280;17486;46.738;7.622;2022-10-31T08:36:31;95663.03;;;13.25;62.26
30744;BME280;17486;46.738;7.622;2022-10-31T08:38:56;95672.19;;;13.32;62.14
30744;BME280;17486;46.738;7.622;2022-10-31T08:41:21;95638.91;;;13.20;62.13
30744;BME280;17486;46.738;7.622;2022-10-31T08:43:47;95638.59;;;13.26;62.17
30744;BME280;17486;46.738;7.622;2022-10-31T08:46:13;95639.81;;;13.36;62.06
30744;BME280;17486;46.738;7.622;2022-10-31T08:48:38;95672.41;;;13.61;62.13
30744;BME280;17486;46.738;7.622;2022-10-31T08:51:04;95675.56;;;13.68;62.05
30744;BME280;17486;46.738;7.622;2022-10-31T08:53:30;95673.44;;;13.74;61.65
30744;BME280;17486;46.738;7.622;2022-10-31T08:55:55;95664.50;;;13.79;61.39
30744;BME280;17486;46.738;7.622;2022-10-31T08:58:22;95681.69;;;13.83;60.85
30744;BME280;17486;46.738;7.622;2022-10-31T09:00:52;95661.47;;;13.86;60.11
30744;BME280;17486;46.738;7.622;2022-10-31T09:03:25;95625.91;;;13.68;60.45
30744;BME280;17486;46.738;7.622;2022-10-31T09:05:55;95656.91;;;13.90;60.28
30744;BME280;17486;46.738;7.622;2022-10-31T09:08:21;95614.44;;;13.70;60.11
30744;BME280;17486;46.738;7.622;2022-10-31T09:10:46;95659.75;;;14.01;60.03
30744;BME280;17486;46.738;7.622;2022-10-31T09:13:14;95612.22;;;13.79;59.79
30744;BME280;17486;46.738;7.622;2022-10-31T09:15:41;95618.97;;;13.83;60.21
30744;BME280;17486;46.738;7.622;2022-10-31T09:18:08;95651.66;;;14.06;59.99
30744;BME280;17486;46.738;7.622;2022-10-31T09:20:36;95654.00;;;14.10;59.93
30744;BME280;17486;46.738;7.622;2022-10-31T09:23:04;95655.69;;;14.12;60.09
30744;BME280;17486;46.738;7.622;2022-10-31T09:25:32;95648.94;;;14.07;59.81
30744;BME280;17486;46.738;7.622;2022-10-31T09:27:59;95636.59;;;14.09;59.82
30744;BME280;17486;46.738;7.622;2022-10-31T09:30:26;95645.13;;;14.13;59.63
30744;BME280;17486;46.738;7.622;2022-10-31T09:32:59;95635.44;;;14.15;59.53
30744;BME280;17486;46.738;7.622;2022-10-31T09:35:25;95627.59;;;14.15;59.13
30744;BME280;17486;46.738;7.622;2022-10-31T09:37:55;95620.56;;;14.16;59.06
30744;BME280;17486;46.738;7.622;2022-10-31T09:40:22;95597.84;;;14.02;58.60
30744;BME280;17486;46.738;7.622;2022-10-31T09:43:15;95640.97;;;14.25;58.63
30744;BME280;17486;46.738;7.622;2022-10-31T09:46:08;95588.13;;;14.04;58.82
30744;BME280;17486;46.738;7.622;2022-10-31T09:51:08;95611.84;;;14.31;59.08
30744;BME280;17486;46.738;7.622;2022-10-31T09:53:36;95627.47;;;14.47;58.84
30744;BME280;17486;46.738;7.622;2022-10-31T09:56:13;95602.78;;;14.51;59.14
30744;BME280;17486;46.738;7.622;2022-10-31T09:58:43;95616.81;;;14.81;58.79
30744;BME280;17486;46.738;7.622;2022-10-31T10:01:20;95582.66;;;14.82;58.82
30744;BME280;17486;46.738;7.622;2022-10-31T10:03:50;95614.53;;;15.18;58.46
30744;BME280;17486;46.738;7.622;2022-10-31T10:06:25;95605.81;;;15.32;58.54
30744;BME280;17486;46.738;7.622;2022-10-31T10:08:52;95615.38;;;15.60;59.17
30744;BME280;17486;46.738;7.622;2022-10-31T10:22:30;95616.13;;;16.70;56.26
30744;BME280;17486;46.738;7.622;2022-10-31T10:27:46;95624.66;;;16.86;55.55
30744;BME280;17486;46.738;7.622;2022-10-31T10:30:17;95613.84;;;16.91;56.81
30744;BME280;17486;46.738;7.622;2022-10-31T10:32:57;95608.16;;;16.97;56.44
30744;BME280;17486;46.738;7.622;2022-10-31T10:35:33;95619.50;;;17.11;56.96
30744;BME280;17486;46.738;7.622;2022-10-31T10:38:08;95612.75;;;17.19;57.48
30744;BME280;17486;46.738;7.622;2022-10-31T10:40:36;95611.34;;;17.39;57.46
30744;BME280;17486;46.738;7.622;2022-10-31T10:43:24;95608.88;;;17.62;58.11
30744;BME280;17486;46.738;7.622;2022-10-31T10:49:00;95608.34;;;18.18;55.35
30744;BME280;17486;46.738;7.622;2022-10-31T10:59:56;95534.31;;;18.34;56.15
30744;BME280;17486;46.738;7.622;2022-10-31T11:02:26;95560.69;;;18.68;56.90
30744;BME280;17486;46.738;7.622;2022-10-31T11:04:57;95572.69;;;18.84;54.82
30744;BME280;17486;46.738;7.622;2022-10-31T11:07:23;95574.34;;;18.85;53.59
30744;BME280;17486;46.738;7.622;2022-10-31T11:09:49;95541.78;;;18.86;53.40
30744;BME280;17486;46.738;7.622;2022-10-31T11:12:35;95556.41;;;19.24;53.09
30744;BME280;17486;46.738;7.622;2022-10-31T11:15:07;95556.38;;;19.47;51.85
30744;BME280;17486;46.738;7.622;2022-10-31T11:17:39;95533.22;;;19.50;51.84
30744;BME280;17486;46.738;7.622;2022-10-31T11:22:47;95540.56;;;20.12;49.89
30744;BME280;17486;46.738;7.622;2022-10-31T11:25:31;95517.84;;;20.20;50.12
30744;BME280;17486;46.738;7.622;2022-10-31T11:30:26;95526.31;;;20.66;48.25
30744;BME280;17486;46.738;7.622;2022-10-31T11:32:52;95500.41;;;20.60;48.57
30744;BME280;17486;46.738;7.622;2022-10-31T11:35:19;95485.13;;;20.64;48.17
30744;BME280;17486;46.738;7.622;2022-10-31T11:37:47;95516.34;;;21.01;48.31
30744;BME280;17486;46.738;7.622;2022-10-31T11:40:22;95519.75;;;21.23;46.95
30744;BME280;17486;46.738;7.622;2022-10-31T11:42:49;95475.59;;;21.23;46.09
30744;BME280;17486;46.738;7.622;2022-10-31T11:45:31;95482.63;;;21.44;45.71
30744;BME280;17486;46.738;7.622;2022-10-31T11:47:57;95506.06;;;21.78;44.46
30744;BME280;17486;46.738;7.622;2022-10-31T11:50:31;95484.19;;;21.95;44.67
30744;BME280;17486;46.738;7.622;2022-10-31T11:52:58;95498.38;;;22.24;43.89
30744;BME280;17486;46.738;7.622;2022-10-31T11:55:31;95464.09;;;22.22;42.98
30744;BME280;17486;46.738;7.622;2022-10-31T11:57:57;95482.47;;;22.43;41.67
30744;BME280;17486;46.738;7.622;2022-10-31T12:00:36;95487.88;;;22.51;42.04
30744;BME280;17486;46.738;7.622;2022-10-31T12:03:26;95470.38;;;22.68;42.02
30744;BME280;17486;46.738;7.622;2022-10-31T12:08:20;95455.56;;;23.04;41.24
30744;BME280;17486;46.738;7.622;2022-10-31T12:21:59;95435.53;;;23.37;38.16
30744;BME280;17486;46.738;7.622;2022-10-31T12:24:41;95417.44;;;23.50;38.25
30744;BME280;17486;46.738;7.622;2022-10-31T12:35:54;95393.63;;;24.29;37.03
30744;BME280;17486;46.738;7.622;2022-10-31T12:44:03;95376.50;;;24.24;35.71
30744;BME280;17486;46.738;7.622;2022-10-31T12:52:32;95340.25;;;24.57;34.68
30744;BME280;17486;46.738;7.622;2022-10-31T12:55:24;95359.97;;;24.81;34.36
30744;BME280;17486;46.738;7.622;2022-10-31T12:58:00;95337.38;;;24.85;33.64
30744;BME280;17486;46.738;7.622;2022-10-31T13:00:28;95321.56;;;24.67;33.47
30744;BME280;17486;46.738;7.622;2022-10-31T13:03:12;95337.00;;;24.63;33.77
30744;BME280;17486;46.738;7.622;2022-10-31T13:05:42;95330.22;;;24.43;33.61
30744;BME280;17486;46.738;7.622;2022-10-31T13:08:14;95315.22;;;24.25;34.50
30744;BME280;17486;46.738;7.622;2022-10-31T13:10:47;95293.09;;;24.25;34.02
30744;BME280;17486;46.738;7.622;2022-10-31T13:13:41;95315.34;;;24.58;34.96
30744;BME280;17486;46.738;7.622;2022-10-31T13:16:21;95304.44;;;24.78;35.37
30744;BME280;17486;46.738;7.622;2022-10-31T13:19:00;95296.16;;;24.89;34.13
30744;BME280;17486;46.738;7.622;2022-10-31T13:21:39;95295.84;;;25.00;33.61
30744;BME280;17486;46.738;7.622;2022-10-31T13:24:15;95298.84;;;25.06;33.78
30744;BME280;17486;46.738;7.622;2022-10-31T13:26:50;95272.56;;;24.94;33.13
30744;BME280;17486;46.738;7.622;2022-10-31T13:29:24;95301.16;;;25.00;32.73
30744;BME280;17486;46.738;7.622;2022-10-31T13:31:52;95286.34;;;24.90;32.58
30744;BME280;17486;46.738;7.622;2022-10-31T13:36:56;95243.19;;;24.61;33.38
30744;BME280;17486;46.738;7.622;2022-10-31T13:42:25;95272.03;;;24.82;33.74
30744;BME280;17486;46.738;7.622;2022-10-31T13:44:52;95271.22;;;24.98;32.26
30744;BME280;17486;46.738;7.622;2022-10-31T13:47:27;95260.75;;;25.13;31.93
30744;BME280;17486;46.738;7.622;2022-10-31T13:50:21;95239.28;;;25.15;31.02
30744;BME280;17486;46.738;7.622;2022-10-31T13:52:47;95259.44;;;25.42;30.70
30744;BME280;17486;46.738;7.622;2022-10-31T13:55:35;95254.09;;;25.51;30.68
30744;BME280;17486;46.738;7.622;2022-10-31T13:58:04;95252.25;;;25.68;30.23
30744;BME280;17486;46.738;7.622;2022-10-31T14:00:30;95247.16;;;25.97;30.47
30744;BME280;17486;46.738;7.622;2022-10-31T14:03:00;95234.00;;;26.12;29.96
30744;BME280;17486;46.738;7.622;2022-10-31T14:05:30;95241.78;;;26.54;29.60
30744;BME280;17486;46.738;7.622;2022-10-31T14:07:57;95246.13;;;26.86;29.48
30744;BME280;17486;46.738;7.622;2022-10-31T14:10:36;95247.84;;;26.71;29.50
30744;BME280;17486;46.738;7.622;2022-10-31T14:13:25;95235.31;;;26.48;29.46
30744;BME280;17486;46.738;7.622;2022-10-31T14:16:25;95241.16;;;26.43;30.10
30744;BME280;17486;46.738;7.622;2022-10-31T14:19:00;95232.66;;;26.48;30.01
30744;BME280;17486;46.738;7.622;2022-10-31T14:21:29;95220.16;;;27.18;29.40
30744;BME280;17486;46.738;7.622;2022-10-31T14:23:56;95240.25;;;28.72;28.39
30744;BME280;17486;46.738;7.622;2022-10-31T14:31:44;95227.56;;;33.80;22.80
30744;BME280;17486;46.738;7.622;2022-10-31T14:34:29;95229.91;;;34.88;21.50
30744;BME280;17486;46.738;7.622;2022-10-31T14:46:10;95197.38;;;32.82;22.08
30744;BME280;17486;46.738;7.622;2022-10-31T14:51:41;95229.31;;;30.30;24.77
30744;BME280;17486;46.738;7.622;2022-10-31T14:54:14;95221.63;;;29.07;25.54
30744;BME280;17486;46.738;7.622;2022-10-31T14:56:47;95215.50;;;27.88;26.58
30744;BME280;17486;46.738;7.622;2022-10-31T14:59:15;95240.16;;;27.22;28.06
30744;BME280;17486;46.738;7.622;2022-10-31T15:01:53;95238.19;;;26.70;29.54
30744;BME280;17486;46.738;7.622;2022-10-31T15:04:24;95233.25;;;26.58;30.34
30744;BME280;17486;46.738;7.622;2022-10-31T15:06:54;95216.72;;;26.31;31.43
30744;BME280;17486;46.738;7.622;2022-10-31T15:09:25;95232.19;;;26.05;31.68
30744;BME280;17486;46.738;7.622;2022-10-31T15:11:51;95204.84;;;25.30;31.43
30744;BME280;17486;46.738;7.622;2022-10-31T15:14:25;95235.94;;;24.80;32.38